createdAt,value
2022-11-22T00:02:07.133Z,1.10
2022-11-22T00:04:34.349Z,1.10
2022-11-22T00:07:01.737Z,1.10
2022-11-22T00:09:28.939Z,1.10
2022-11-22T00:11:56.498Z,1.10
2022-11-22T00:14:23.550Z,1.20
2022-11-22T00:16:50.831Z,1.20
2022-11-22T00:19:17.883Z,1.20
2022-11-22T00:21:45.171Z,1.20
2022-11-22T00:24:15.375Z,1.20
2022-11-22T00:26:42.620Z,1.20
2022-11-22T00:29:09.723Z,1.20
2022-11-22T00:31:36.949Z,1.20
2022-11-22T00:34:04.020Z,1.20
2022-11-22T00:36:31.364Z,1.20
2022-11-22T00:38:58.349Z,1.30
2022-11-22T00:41:25.640Z,1.30
2022-11-22T00:43:52.615Z,1.30
2022-11-22T00:46:19.939Z,1.30
2022-11-22T00:48:46.940Z,1.30
2022-11-22T00:51:14.411Z,1.30
2022-11-22T00:53:41.535Z,1.30
2022-11-22T00:56:08.794Z,1.30
2022-11-22T00:58:35.773Z,1.30
2022-11-22T01:01:03.103Z,1.30
2022-11-22T01:03:30.107Z,1.30
2022-11-22T01:05:57.354Z,1.30
2022-11-22T01:08:24.329Z,1.30
2022-11-22T01:10:59.896Z,1.40
2022-11-22T01:13:28.976Z,1.40
2022-11-22T01:16:09.834Z,1.40
2022-11-22T01:18:37.170Z,1.40
2022-11-22T01:21:05.969Z,1.40
2022-11-22T01:23:35.146Z,1.40
2022-11-22T01:26:02.646Z,1.40
2022-11-22T01:28:29.685Z,1.40
2022-11-22T01:30:57.098Z,1.40
2022-11-22T01:33:24.344Z,1.40
2022-11-22T01:35:51.842Z,1.40
2022-11-22T01:38:18.793Z,1.40
2022-11-22T01:40:46.068Z,1.40
2022-11-22T01:43:24.890Z,1.40
2022-11-22T01:45:55.599Z,1.50
2022-11-22T01:48:34.314Z,1.50
2022-11-22T01:51:35.299Z,1.50
2022-11-22T01:54:07.764Z,1.40
2022-11-22T01:56:37.072Z,1.40
2022-11-22T01:59:09.683Z,1.40
2022-11-22T02:01:37.550Z,1.50
2022-11-22T02:04:09.587Z,1.40
2022-11-22T02:07:05.843Z,1.50
2022-11-22T02:09:34.206Z,1.50
2022-11-22T02:12:03.692Z,1.50
2022-11-22T02:14:32.162Z,1.50
2022-11-22T02:16:59.416Z,1.40
2022-11-22T02:19:46.898Z,1.40
2022-11-22T02:22:17.103Z,1.40
2022-11-22T02:24:51.927Z,1.40
2022-11-22T02:27:19.240Z,1.40
2022-11-22T02:29:46.550Z,1.40
2022-11-22T02:32:13.817Z,1.40
2022-11-22T02:34:50.718Z,1.40
2022-11-22T02:37:22.617Z,1.40
2022-11-22T02:39:56.124Z,1.40
2022-11-22T02:42:26.042Z,1.40
2022-11-22T02:44:53.001Z,1.40
2022-11-22T02:47:20.195Z,1.40
2022-11-22T02:49:47.306Z,1.40
2022-11-22T02:52:19.111Z,1.40
2022-11-22T02:54:46.430Z,1.50
2022-11-22T02:57:13.970Z,1.40
2022-11-22T02:59:41.023Z,1.50
2022-11-22T03:02:08.345Z,1.50
2022-11-22T03:04:35.373Z,1.50
2022-11-22T03:07:03.019Z,1.50
2022-11-22T03:09:30.439Z,1.50
2022-11-22T03:11:58.050Z,1.50
2022-11-22T03:14:25.094Z,1.40
2022-11-22T03:16:52.559Z,1.40
2022-11-22T03:19:19.587Z,1.40
2022-11-22T03:21:46.868Z,1.40
2022-11-22T03:24:14.234Z,1.40
2022-11-22T03:26:41.460Z,1.40
2022-11-22T03:29:08.408Z,1.30
2022-11-22T03:31:36.176Z,1.40
2022-11-22T03:34:03.290Z,1.40
2022-11-22T03:36:30.497Z,1.20
2022-11-22T03:38:58.822Z,1.00
2022-11-22T03:41:26.687Z,1.00
2022-11-22T03:43:54.143Z,1.10
2022-11-22T03:46:22.037Z,1.20
2022-11-22T03:48:49.144Z,1.20
2022-11-22T03:51:16.414Z,1.20
2022-11-22T03:53:43.429Z,1.20
2022-11-22T03:56:10.725Z,1.20
2022-11-22T03:58:37.702Z,1.20
2022-11-22T04:01:05.186Z,1.30
2022-11-22T04:03:32.278Z,1.30
2022-11-22T04:05:59.548Z,1.30
2022-11-22T04:08:26.862Z,1.30
2022-11-22T04:10:54.130Z,1.20
2022-11-22T04:13:21.493Z,1.20
2022-11-22T04:15:48.725Z,1.20
2022-11-22T04:18:15.751Z,1.30
2022-11-22T04:21:01.509Z,1.30
2022-11-22T04:23:33.840Z,1.30
2022-11-22T04:26:02.590Z,1.30
2022-11-22T04:29:01.829Z,1.20
2022-11-22T04:31:35.351Z,1.20
2022-11-22T04:34:02.316Z,1.20
2022-11-22T04:36:29.565Z,1.20
2022-11-22T04:38:56.490Z,1.20
2022-11-22T04:41:23.967Z,1.20
2022-11-22T04:44:09.303Z,1.20
2022-11-22T04:46:37.144Z,1.20
2022-11-22T04:49:04.234Z,1.20
2022-11-22T04:52:03.624Z,1.20
2022-11-22T04:54:30.588Z,1.20
2022-11-22T04:56:58.164Z,1.10
2022-11-22T04:59:25.335Z,1.20
2022-11-22T05:01:52.906Z,1.10
2022-11-22T05:04:20.005Z,1.10
2022-11-22T05:06:47.240Z,1.20
2022-11-22T05:09:14.337Z,1.20
2022-11-22T05:11:41.587Z,1.20
2022-11-22T05:14:09.787Z,1.20
2022-11-22T05:16:37.107Z,1.20
2022-11-22T05:19:04.408Z,1.20
2022-11-22T05:21:33.295Z,1.20
2022-11-22T05:24:00.286Z,1.20
2022-11-22T05:26:33.487Z,1.20
2022-11-22T05:29:07.966Z,1.10
2022-11-22T05:31:37.316Z,1.10
2022-11-22T05:34:05.320Z,1.10
2022-11-22T05:36:34.506Z,1.10
2022-11-22T05:39:02.141Z,1.10
2022-11-22T05:41:29.458Z,1.00
2022-11-22T05:43:56.792Z,1.00
2022-11-22T05:46:28.756Z,1.00
2022-11-22T05:48:57.358Z,1.00
2022-11-22T05:51:32.279Z,1.10
2022-11-22T05:54:01.512Z,1.10
2022-11-22T05:56:28.859Z,1.10
2022-11-22T05:58:55.912Z,1.10
2022-11-22T06:01:24.497Z,1.10
2022-11-22T06:03:51.942Z,1.10
2022-11-22T06:06:22.158Z,1.10
2022-11-22T06:08:51.173Z,1.00
2022-11-22T06:11:23.486Z,1.00
2022-11-22T06:13:53.395Z,1.00
2022-11-22T06:16:21.309Z,1.10
2022-11-22T06:18:48.540Z,1.00
2022-11-22T06:21:19.408Z,1.10
2022-11-22T06:23:46.712Z,1.10
2022-11-22T06:26:16.760Z,1.10
2022-11-22T06:28:45.397Z,1.00
2022-11-22T06:31:21.018Z,1.00
2022-11-22T06:33:48.236Z,1.00
2022-11-22T06:36:24.241Z,1.10
2022-11-22T06:38:52.054Z,1.10
2022-11-22T06:41:32.917Z,1.10
2022-11-22T06:43:59.972Z,1.10
2022-11-22T06:46:27.797Z,1.10
2022-11-22T06:48:54.898Z,1.10
2022-11-22T06:51:30.471Z,1.10
2022-11-22T06:53:58.208Z,1.10
2022-11-22T06:56:31.087Z,1.10
2022-11-22T06:59:01.145Z,1.10
2022-11-22T07:01:29.581Z,1.10
2022-11-22T07:04:00.488Z,1.10
2022-11-22T07:06:33.077Z,1.10
2022-11-22T07:09:01.725Z,1.20
2022-11-22T07:11:31.075Z,1.20
2022-11-22T07:14:05.310Z,1.20
2022-11-22T07:16:35.674Z,1.10
2022-11-22T07:19:03.225Z,1.10
2022-11-22T07:21:30.630Z,1.10
2022-11-22T07:23:57.719Z,1.10
2022-11-22T07:26:26.316Z,1.20
2022-11-22T07:28:53.361Z,1.10
2022-11-22T07:31:21.339Z,1.10
2022-11-22T07:33:48.706Z,1.10
2022-11-22T07:36:21.753Z,1.20
2022-11-22T07:38:49.464Z,1.10
2022-11-22T07:41:18.350Z,1.10
2022-11-22T07:43:46.937Z,1.00
2022-11-22T07:46:21.872Z,1.00
2022-11-22T07:48:49.800Z,1.10
2022-11-22T07:51:17.467Z,1.10
2022-11-22T07:53:44.646Z,1.10
2022-11-22T07:56:12.609Z,1.10
2022-11-22T07:58:40.129Z,1.20
2022-11-22T08:01:14.759Z,1.20
2022-11-22T08:03:42.915Z,1.10
2022-11-22T08:06:13.684Z,1.10
2022-11-22T08:08:40.921Z,1.10
2022-11-22T08:11:08.635Z,1.20
2022-11-22T08:13:36.181Z,1.20
2022-11-22T08:16:07.305Z,1.30
2022-11-22T08:18:35.635Z,1.30
2022-11-22T08:21:07.606Z,1.30
2022-11-22T08:23:35.764Z,1.40
2022-11-22T08:26:08.166Z,1.40
2022-11-22T08:28:46.798Z,1.50
2022-11-22T08:31:21.195Z,1.60
2022-11-22T08:33:54.523Z,1.60
2022-11-22T08:36:22.182Z,1.80
2022-11-22T08:38:49.261Z,1.90
2022-11-22T08:41:16.562Z,2.00
2022-11-22T08:43:43.675Z,2.10
2022-11-22T08:46:11.681Z,2.20
2022-11-22T08:48:40.572Z,2.20
2022-11-22T08:51:10.846Z,2.30
2022-11-22T08:53:40.906Z,2.30
2022-11-22T08:56:11.116Z,2.40
2022-11-22T08:58:39.002Z,2.40
2022-11-22T09:01:07.680Z,2.50
2022-11-22T09:03:35.577Z,2.50
2022-11-22T09:09:08.544Z,2.50
2022-11-22T09:11:36.315Z,2.60
2022-11-22T09:14:03.353Z,2.70
2022-11-22T09:16:30.643Z,2.80
2022-11-22T09:18:57.686Z,2.80
2022-11-22T09:21:25.070Z,2.90
2022-11-22T09:23:54.553Z,3.00
2022-11-22T09:26:27.278Z,2.90
2022-11-22T09:28:54.393Z,2.90
2022-11-22T09:31:23.632Z,2.90
2022-11-22T09:33:51.805Z,2.70
2022-11-22T09:36:26.244Z,2.80
2022-11-22T09:38:54.383Z,2.70
2022-11-22T09:41:39.550Z,2.80
2022-11-22T09:44:19.066Z,2.90
2022-11-22T09:47:10.038Z,2.70
2022-11-22T09:50:23.096Z,2.60
2022-11-22T09:53:09.438Z,2.80
2022-11-22T09:55:47.660Z,3.00
2022-11-22T09:58:42.498Z,3.20
2022-11-22T10:01:16.751Z,3.30
2022-11-22T10:04:08.971Z,3.30
2022-11-22T10:06:42.435Z,3.30
2022-11-22T10:09:41.135Z,3.30
2022-11-22T10:12:25.686Z,3.50
2022-11-22T10:15:02.625Z,3.60
2022-11-22T10:17:40.171Z,3.60
2022-11-22T10:20:07.566Z,3.70
2022-11-22T10:22:35.514Z,3.70
2022-11-22T10:25:13.553Z,3.70
2022-11-22T10:27:41.947Z,3.60
2022-11-22T10:30:19.870Z,3.50
2022-11-22T10:32:56.752Z,3.60
2022-11-22T10:35:31.017Z,3.60
2022-11-22T10:38:35.100Z,3.70
2022-11-22T10:41:18.724Z,3.60
2022-11-22T10:43:55.305Z,3.70
2022-11-22T10:46:50.094Z,3.80
2022-11-22T10:49:54.857Z,3.90
2022-11-22T10:52:27.996Z,4.10
2022-11-22T10:55:04.586Z,4.20
2022-11-22T10:57:48.535Z,4.10
2022-11-22T11:00:25.070Z,3.90
2022-11-22T11:03:06.646Z,3.80
2022-11-22T11:09:23.505Z,3.50
2022-11-22T11:11:33.736Z,3.50
2022-11-22T11:14:48.569Z,3.40
2022-11-22T11:17:29.874Z,3.10
2022-11-22T11:20:03.049Z,3.10
2022-11-22T11:23:06.306Z,3.00
2022-11-22T11:25:31.189Z,2.90
2022-11-22T11:28:03.129Z,3.00
2022-11-22T11:30:46.077Z,3.00
2022-11-22T11:33:21.051Z,3.10
2022-11-22T11:35:48.587Z,3.10
2022-11-22T11:38:31.333Z,3.10
2022-11-22T11:41:15.613Z,3.10
2022-11-22T11:43:43.972Z,3.10
2022-11-22T11:46:20.188Z,3.10
2022-11-22T11:48:48.972Z,3.20
2022-11-22T11:51:21.209Z,3.10
2022-11-22T11:53:56.430Z,3.00
2022-11-22T11:56:30.096Z,3.00
2022-11-22T11:58:59.291Z,3.00
2022-11-22T12:01:27.097Z,3.10
2022-11-22T12:03:59.494Z,3.10
2022-11-22T12:06:33.824Z,3.00
2022-11-22T12:09:07.928Z,3.00
2022-11-22T12:11:50.790Z,3.00
2022-11-22T12:14:22.872Z,2.90
2022-11-22T12:16:57.244Z,3.00
2022-11-22T12:19:59.850Z,3.00
2022-11-22T12:22:57.413Z,3.00
2022-11-22T12:25:38.564Z,3.00
2022-11-22T12:28:22.562Z,3.00
2022-11-22T12:31:25.200Z,2.80
2022-11-22T12:34:10.582Z,2.80
2022-11-22T12:36:49.187Z,2.70
2022-11-22T12:39:23.238Z,2.60
2022-11-22T12:41:59.382Z,2.60
2022-11-22T12:44:29.207Z,2.50
2022-11-22T12:47:06.803Z,2.50
2022-11-22T12:49:46.506Z,2.30
2022-11-22T12:52:35.120Z,2.30
2022-11-22T12:55:11.154Z,2.30
2022-11-22T12:57:51.290Z,2.40
2022-11-22T13:00:22.352Z,2.50
2022-11-22T13:02:52.148Z,2.60
2022-11-22T13:05:29.185Z,2.60
2022-11-22T13:08:14.504Z,2.50
2022-11-22T13:10:55.089Z,2.50
2022-11-22T13:13:27.600Z,2.50
2022-11-22T13:16:00.142Z,2.60
2022-11-22T13:18:32.342Z,2.50
2022-11-22T13:21:22.200Z,2.40
2022-11-22T13:24:02.082Z,2.40
2022-11-22T13:26:35.591Z,2.30
2022-11-22T13:29:18.860Z,2.40
2022-11-22T13:32:12.144Z,2.40
2022-11-22T13:35:06.881Z,2.40
2022-11-22T13:37:39.242Z,2.40
2022-11-22T13:40:21.659Z,2.40
2022-11-22T13:43:15.579Z,2.30
2022-11-22T13:45:55.252Z,2.40
2022-11-22T13:48:42.883Z,2.40
2022-11-22T13:51:15.430Z,2.30
2022-11-22T13:53:44.718Z,2.30
2022-11-22T13:56:27.370Z,2.30
2022-11-22T13:59:12.285Z,2.30
2022-11-22T14:01:39.628Z,2.20
2022-11-22T14:04:15.804Z,2.20
2022-11-22T14:07:10.101Z,2.20
2022-11-22T14:09:45.471Z,2.10
2022-11-22T14:12:20.693Z,2.10
2022-11-22T14:15:09.781Z,2.00
2022-11-22T14:18:05.997Z,2.00
2022-11-22T14:21:00.390Z,2.10
2022-11-22T14:23:51.740Z,2.10
2022-11-22T14:26:50.036Z,2.10
2022-11-22T14:29:23.183Z,1.60
2022-11-22T14:32:04.227Z,2.10
2022-11-22T14:34:31.923Z,2.10
2022-11-22T14:37:11.321Z,2.00
2022-11-22T14:40:00.694Z,2.00
2022-11-22T14:42:48.827Z,2.00
2022-11-22T14:45:24.772Z,2.00
2022-11-22T14:47:52.344Z,1.90
2022-11-22T14:50:40.414Z,1.90
2022-11-22T14:53:19.235Z,2.00
2022-11-22T14:55:47.772Z,2.00
2022-11-22T14:58:23.456Z,2.10
2022-11-22T15:01:19.702Z,2.00
2022-11-22T15:09:09.897Z,2.00
2022-11-22T15:09:10.281Z,2.00
2022-11-22T15:10:28.631Z,1.90
2022-11-22T15:13:33.786Z,1.90
2022-11-22T15:59:24.690Z,1.80
2022-11-22T16:01:55.943Z,1.80
2022-11-22T16:04:29.487Z,1.80
2022-11-22T16:06:59.998Z,1.80
2022-11-22T16:09:34.030Z,1.80
2022-11-22T16:12:06.988Z,1.80
2022-11-22T16:14:51.031Z,1.70
2022-11-22T16:17:35.677Z,1.80
2022-11-22T16:20:36.369Z,1.70
2022-11-22T16:23:09.572Z,1.70
2022-11-22T16:25:45.832Z,1.80
2022-11-22T16:28:33.939Z,1.70
2022-11-22T16:31:22.763Z,1.70
2022-11-22T16:33:53.223Z,1.60
2022-11-22T16:36:21.589Z,1.60
2022-11-22T16:38:48.947Z,1.60
2022-11-22T16:41:27.984Z,1.60
2022-11-22T16:44:06.743Z,1.50
2022-11-22T16:46:33.673Z,1.50
2022-11-22T16:49:01.315Z,1.50
2022-11-22T16:51:30.064Z,1.50
2022-11-22T16:54:06.422Z,1.60
2022-11-22T16:56:33.796Z,1.60
2022-11-22T16:59:01.779Z,1.60
2022-11-22T17:01:33.368Z,1.60
2022-11-22T17:04:02.818Z,1.60
2022-11-22T17:06:31.266Z,1.50
2022-11-22T17:09:00.307Z,1.60
2022-11-22T17:11:30.869Z,1.60
2022-11-22T17:13:59.684Z,1.50
2022-11-22T17:16:26.823Z,1.60
2022-11-22T17:18:54.434Z,1.60
2022-11-22T17:21:41.458Z,1.60
2022-11-22T17:24:19.322Z,1.60
2022-11-22T17:26:46.674Z,1.60
2022-11-22T17:29:29.004Z,1.60
2022-11-22T17:32:01.276Z,1.60
2022-11-22T17:34:30.469Z,1.50
2022-11-22T17:36:58.711Z,1.50
2022-11-22T17:39:26.069Z,1.50
2022-11-22T17:41:53.044Z,1.50
2022-11-22T17:44:20.532Z,1.50
2022-11-22T17:46:47.601Z,1.60
2022-11-22T17:49:16.242Z,1.50
2022-11-22T17:51:43.821Z,1.50
2022-11-22T17:54:11.125Z,1.50
2022-11-22T17:56:40.608Z,1.60
2022-11-22T17:59:07.880Z,1.60
2022-11-22T18:01:36.943Z,1.60
2022-11-22T18:04:04.483Z,1.50
2022-11-22T18:06:32.178Z,1.50
2022-11-22T18:09:00.909Z,1.50
2022-11-22T18:11:27.958Z,1.40
2022-11-22T18:13:55.422Z,1.30
2022-11-22T18:16:28.343Z,1.30
2022-11-22T18:18:57.827Z,1.20
2022-11-22T18:21:29.385Z,1.30
2022-11-22T18:24:01.199Z,1.30
2022-11-22T18:26:39.225Z,1.40
2022-11-22T18:31:56.510Z,1.50
2022-11-22T18:34:24.569Z,1.40
2022-11-22T18:37:00.441Z,1.40
2022-11-22T18:39:31.202Z,1.40
2022-11-22T18:41:59.120Z,1.30
2022-11-22T18:44:26.820Z,1.20
2022-11-22T18:46:54.280Z,1.20
2022-11-22T18:49:22.096Z,1.30
2022-11-22T18:51:49.466Z,1.30
2022-11-22T18:54:18.403Z,1.20
2022-11-22T18:56:45.517Z,1.20
2022-11-22T18:59:13.549Z,1.20
2022-11-22T19:01:41.560Z,1.20
2022-11-22T19:04:13.803Z,1.20
2022-11-22T19:06:42.285Z,1.20
2022-11-22T19:09:11.346Z,1.30
2022-11-22T19:11:38.715Z,1.20
2022-11-22T19:14:10.100Z,1.20
2022-11-22T19:16:37.506Z,1.30
2022-11-22T19:19:05.033Z,1.30
2022-11-22T19:21:32.409Z,1.30
2022-11-22T19:24:00.111Z,1.30
2022-11-22T19:26:28.124Z,1.30
2022-11-22T19:28:57.634Z,1.40
2022-11-22T19:31:28.974Z,1.40
2022-11-22T19:33:57.690Z,1.40
2022-11-22T19:36:32.707Z,1.40
2022-11-22T19:39:03.427Z,1.40
2022-11-22T19:41:31.087Z,1.40
2022-11-22T19:43:58.571Z,1.40
2022-11-22T19:46:26.158Z,1.30
2022-11-22T19:48:55.910Z,1.20
2022-11-22T19:51:24.296Z,1.10
2022-11-22T19:53:58.885Z,1.10
2022-11-22T19:56:30.276Z,1.10
2022-11-22T19:59:00.048Z,1.10
2022-11-22T20:01:29.833Z,1.00
2022-11-22T20:04:00.572Z,1.00
2022-11-22T20:06:28.312Z,1.00
2022-11-22T20:09:03.162Z,1.00
2022-11-22T20:11:30.204Z,1.00
2022-11-22T20:13:57.628Z,1.10
2022-11-22T20:16:27.642Z,1.20
2022-11-22T20:19:00.325Z,1.10
2022-11-22T20:21:30.851Z,1.10
2022-11-22T20:23:58.911Z,1.10
2022-11-22T20:26:26.099Z,1.10
2022-11-22T20:29:01.440Z,1.10
2022-11-22T20:31:31.681Z,1.20
2022-11-22T20:34:00.393Z,1.20
2022-11-22T20:36:29.582Z,1.20
2022-11-22T20:38:57.614Z,1.10
2022-11-22T20:41:27.214Z,1.10
2022-11-22T20:43:55.347Z,1.10
2022-11-22T20:46:24.505Z,1.10
2022-11-22T20:48:53.147Z,1.10
2022-11-22T20:51:25.539Z,1.10
2022-11-22T20:53:53.711Z,1.10
2022-11-22T20:56:20.974Z,1.10
2022-11-22T20:58:48.670Z,1.00
2022-11-22T21:01:24.709Z,1.10
2022-11-22T21:03:53.183Z,1.10
2022-11-22T21:06:24.972Z,1.10
2022-11-22T21:08:52.522Z,1.10
2022-11-22T21:11:24.985Z,1.10
2022-11-22T21:13:53.025Z,1.10
2022-11-22T21:16:23.738Z,1.00
2022-11-22T21:18:53.091Z,1.00
2022-11-22T21:21:23.161Z,1.00
2022-11-22T21:23:56.085Z,1.10
2022-11-22T21:26:25.114Z,1.20
2022-11-22T21:28:53.299Z,1.30
2022-11-22T21:31:21.155Z,1.30
2022-11-22T21:33:48.541Z,1.20
2022-11-22T21:36:15.651Z,1.10
2022-11-22T21:38:43.041Z,1.10
2022-11-22T21:41:39.257Z,1.10
2022-11-22T21:44:02.053Z,1.10
2022-11-22T21:46:29.143Z,1.10
2022-11-22T21:48:56.494Z,1.10
2022-11-22T21:51:26.199Z,1.10
2022-11-22T21:53:58.603Z,1.00
2022-11-22T21:56:26.439Z,1.10
2022-11-22T21:58:53.782Z,1.10
2022-11-22T22:01:21.114Z,1.10
2022-11-22T22:03:48.469Z,1.00
2022-11-22T22:06:15.566Z,1.00
2022-11-22T22:08:42.878Z,1.00
2022-11-22T22:11:09.901Z,1.00
2022-11-22T22:13:37.273Z,1.00
2022-11-22T22:16:12.711Z,1.00
2022-11-22T22:18:40.198Z,0.90
2022-11-22T22:21:09.069Z,0.90
2022-11-22T22:23:40.921Z,0.90
2022-11-22T22:26:10.321Z,0.90
2022-11-22T22:28:39.238Z,0.90
2022-11-22T22:31:10.473Z,0.90
2022-11-22T22:33:39.935Z,0.90
2022-11-22T22:36:08.672Z,0.90
2022-11-22T22:38:36.935Z,0.90
2022-11-22T22:41:05.237Z,0.90
2022-11-22T22:43:34.920Z,0.90
2022-11-22T22:46:07.196Z,0.90
2022-11-22T22:48:34.771Z,0.80
2022-11-22T22:51:33.293Z,0.80
2022-11-22T22:54:01.653Z,0.80
2022-11-22T22:56:30.201Z,0.80
2022-11-22T22:59:00.604Z,0.80
2022-11-22T23:01:30.086Z,0.90
2022-11-22T23:03:59.707Z,0.90
2022-11-22T23:06:31.745Z,1.00
2022-11-22T23:08:59.972Z,1.00
2022-11-22T23:11:48.549Z,1.00
2022-11-22T23:14:19.259Z,1.00
2022-11-22T23:16:46.487Z,0.90
2022-11-22T23:19:13.781Z,1.00
2022-11-22T23:21:40.873Z,0.90
2022-11-22T23:24:08.583Z,1.00
2022-11-22T23:26:35.623Z,1.00
2022-11-22T23:29:03.462Z,0.90
2022-11-22T23:31:30.854Z,0.90
2022-11-22T23:34:01.047Z,1.00
2022-11-22T23:36:28.968Z,1.00
2022-11-22T23:38:56.637Z,0.90
2022-11-22T23:41:24.796Z,0.90
2022-11-22T23:43:53.670Z,1.00
2022-11-22T23:46:21.091Z,0.90
2022-11-22T23:48:56.344Z,0.90
2022-11-22T23:51:26.278Z,1.00
2022-11-22T23:53:58.573Z,1.00
2022-11-22T23:56:26.870Z,0.90
2022-11-22T23:58:55.121Z,0.90
